sensor_id;sensor_type;location;lat;lon;timestamp;temperature;humidity
14873;DHT22;7528;48.576;19.122;2023-08-30T00:04:08;22.00;83.80
14873;DHT22;7528;48.576;19.122;2023-08-30T00:09:10;22.00;83.70
14873;DHT22;7528;48.576;19.122;2023-08-30T00:14:15;22.00;83.60
14873;DHT22;7528;48.576;19.122;2023-08-30T00:19:17;22.00;83.40
14873;DHT22;7528;48.576;19.122;2023-08-30T00:24:20;21.90;83.40
14873;DHT22;7528;48.576;19.122;2023-08-30T00:29:23;21.80;83.40
14873;DHT22;7528;48.576;19.122;2023-08-30T00:34:26;21.80;83.70
14873;DHT22;7528;48.576;19.122;2023-08-30T00:39:28;21.80;83.70
14873;DHT22;7528;48.576;19.122;2023-08-30T00:44:32;21.70;83.60
14873;DHT22;7528;48.576;19.122;2023-08-30T00:49:34;21.70;83.50
14873;DHT22;7528;48.576;19.122;2023-08-30T00:54:37;21.70;83.70
14873;DHT22;7528;48.576;19.122;2023-08-30T00:59:41;21.70;83.70
14873;DHT22;7528;48.576;19.122;2023-08-30T01:04:45;21.60;83.80
14873;DHT22;7528;48.576;19.122;2023-08-30T01:09:47;21.60;83.80
14873;DHT22;7528;48.576;19.122;2023-08-30T01:14:56;21.50;83.70
14873;DHT22;7528;48.576;19.122;2023-08-30T01:20:01;21.50;83.70
14873;DHT22;7528;48.576;19.122;2023-08-30T01:25:17;21.50;83.80
14873;DHT22;7528;48.576;19.122;2023-08-30T01:30:24;21.40;83.90
14873;DHT22;7528;48.576;19.122;2023-08-30T01:35:28;21.40;83.90
14873;DHT22;7528;48.576;19.122;2023-08-30T01:40:36;21.40;84.00
14873;DHT22;7528;48.576;19.122;2023-08-30T01:45:42;21.30;84.30
14873;DHT22;7528;48.576;19.122;2023-08-30T01:50:45;21.30;84.30
14873;DHT22;7528;48.576;19.122;2023-08-30T01:55:48;21.30;84.60
14873;DHT22;7528;48.576;19.122;2023-08-30T02:00:52;21.20;84.50
14873;DHT22;7528;48.576;19.122;2023-08-30T02:06:08;21.20;84.60
14873;DHT22;7528;48.576;19.122;2023-08-30T02:11:14;21.20;84.60
14873;DHT22;7528;48.576;19.122;2023-08-30T02:16:19;21.20;84.90
14873;DHT22;7528;48.576;19.122;2023-08-30T02:21:22;21.20;85.40
14873;DHT22;7528;48.576;19.122;2023-08-30T02:26:25;21.20;85.60
14873;DHT22;7528;48.576;19.122;2023-08-30T02:31:29;21.30;85.60
14873;DHT22;7528;48.576;19.122;2023-08-30T02:36:31;21.30;85.50
14873;DHT22;7528;48.576;19.122;2023-08-30T02:41:34;21.30;85.50
14873;DHT22;7528;48.576;19.122;2023-08-30T02:46:37;21.40;85.80
14873;DHT22;7528;48.576;19.122;2023-08-30T02:51:40;21.40;86.50
14873;DHT22;7528;48.576;19.122;2023-08-30T02:56:43;21.40;86.90
14873;DHT22;7528;48.576;19.122;2023-08-30T03:01:47;21.40;87.00
14873;DHT22;7528;48.576;19.122;2023-08-30T03:06:52;21.40;86.60
14873;DHT22;7528;48.576;19.122;2023-08-30T03:11:54;21.40;86.50
14873;DHT22;7528;48.576;19.122;2023-08-30T03:16:58;21.40;86.40
14873;DHT22;7528;48.576;19.122;2023-08-30T03:22:01;21.30;86.30
14873;DHT22;7528;48.576;19.122;2023-08-30T03:27:04;21.30;86.20
14873;DHT22;7528;48.576;19.122;2023-08-30T03:32:07;21.20;86.00
14873;DHT22;7528;48.576;19.122;2023-08-30T03:37:10;21.20;86.00
14873;DHT22;7528;48.576;19.122;2023-08-30T03:42:12;21.10;85.70
14873;DHT22;7528;48.576;19.122;2023-08-30T03:47:17;21.10;86.20
14873;DHT22;7528;48.576;19.122;2023-08-30T03:52:19;21.10;85.50
14873;DHT22;7528;48.576;19.122;2023-08-30T03:57:21;21.10;85.50
14873;DHT22;7528;48.576;19.122;2023-08-30T04:02:25;21.00;85.20
14873;DHT22;7528;48.576;19.122;2023-08-30T04:07:27;20.90;85.20
14873;DHT22;7528;48.576;19.122;2023-08-30T04:12:30;20.90;85.20
14873;DHT22;7528;48.576;19.122;2023-08-30T04:17:33;20.90;85.00
14873;DHT22;7528;48.576;19.122;2023-08-30T04:22:36;20.90;85.20
14873;DHT22;7528;48.576;19.122;2023-08-30T04:27:38;20.90;85.30
14873;DHT22;7528;48.576;19.122;2023-08-30T04:32:42;20.90;85.50
14873;DHT22;7528;48.576;19.122;2023-08-30T04:37:44;21.00;85.40
14873;DHT22;7528;48.576;19.122;2023-08-30T04:42:48;20.90;85.20
14873;DHT22;7528;48.576;19.122;2023-08-30T04:47:51;21.00;85.40
14873;DHT22;7528;48.576;19.122;2023-08-30T04:52:55;21.00;86.40
14873;DHT22;7528;48.576;19.122;2023-08-30T04:57:58;21.00;85.60
14873;DHT22;7528;48.576;19.122;2023-08-30T05:03:06;21.00;85.50
14873;DHT22;7528;48.576;19.122;2023-08-30T05:08:10;21.10;86.00
14873;DHT22;7528;48.576;19.122;2023-08-30T05:13:16;21.10;86.20
14873;DHT22;7528;48.576;19.122;2023-08-30T05:18:20;21.20;85.90
14873;DHT22;7528;48.576;19.122;2023-08-30T05:23:22;21.30;85.30
14873;DHT22;7528;48.576;19.122;2023-08-30T05:28:24;21.40;85.80
14873;DHT22;7528;48.576;19.122;2023-08-30T05:33:28;21.50;85.60
14873;DHT22;7528;48.576;19.122;2023-08-30T05:38:46;21.50;85.70
14873;DHT22;7528;48.576;19.122;2023-08-30T05:43:58;21.60;87.00
14873;DHT22;7528;48.576;19.122;2023-08-30T05:49:02;21.70;86.00
14873;DHT22;7528;48.576;19.122;2023-08-30T05:54:04;21.70;86.40
14873;DHT22;7528;48.576;19.122;2023-08-30T05:59:07;21.70;85.60
14873;DHT22;7528;48.576;19.122;2023-08-30T06:04:10;21.80;86.20
14873;DHT22;7528;48.576;19.122;2023-08-30T06:09:14;21.90;86.10
14873;DHT22;7528;48.576;19.122;2023-08-30T06:14:16;22.00;86.40
14873;DHT22;7528;48.576;19.122;2023-08-30T06:19:20;22.00;85.80
14873;DHT22;7528;48.576;19.122;2023-08-30T06:24:22;22.20;84.90
14873;DHT22;7528;48.576;19.122;2023-08-30T06:29:25;22.30;85.70
14873;DHT22;7528;48.576;19.122;2023-08-30T06:34:28;22.40;84.50
14873;DHT22;7528;48.576;19.122;2023-08-30T06:39:34;22.70;83.40
14873;DHT22;7528;48.576;19.122;2023-08-30T06:44:37;22.90;81.70
14873;DHT22;7528;48.576;19.122;2023-08-30T06:49:42;23.10;81.80
14873;DHT22;7528;48.576;19.122;2023-08-30T06:54:45;23.30;80.30
14873;DHT22;7528;48.576;19.122;2023-08-30T06:59:47;23.70;78.80
14873;DHT22;7528;48.576;19.122;2023-08-30T07:04:51;24.00;78.20
14873;DHT22;7528;48.576;19.122;2023-08-30T07:09:53;24.30;76.70
14873;DHT22;7528;48.576;19.122;2023-08-30T07:14:55;24.50;75.00
14873;DHT22;7528;48.576;19.122;2023-08-30T07:19:59;24.50;73.80
14873;DHT22;7528;48.576;19.122;2023-08-30T07:25:02;24.30;74.10
14873;DHT22;7528;48.576;19.122;2023-08-30T07:30:05;24.50;73.40
14873;DHT22;7528;48.576;19.122;2023-08-30T07:35:10;24.80;73.40
14873;DHT22;7528;48.576;19.122;2023-08-30T07:40:12;25.00;72.20
14873;DHT22;7528;48.576;19.122;2023-08-30T07:45:15;25.20;71.40
14873;DHT22;7528;48.576;19.122;2023-08-30T07:50:18;25.40;71.30
14873;DHT22;7528;48.576;19.122;2023-08-30T07:55:21;25.50;70.40
14873;DHT22;7528;48.576;19.122;2023-08-30T08:00:23;25.70;70.00
14873;DHT22;7528;48.576;19.122;2023-08-30T08:05:27;25.90;66.20
14873;DHT22;7528;48.576;19.122;2023-08-30T08:10:31;26.00;67.10
14873;DHT22;7528;48.576;19.122;2023-08-30T08:15:34;26.20;66.10
14873;DHT22;7528;48.576;19.122;2023-08-30T08:20:38;26.30;64.80
14873;DHT22;7528;48.576;19.122;2023-08-30T08:25:41;26.70;66.20
14873;DHT22;7528;48.576;19.122;2023-08-30T08:30:43;27.00;65.70
14873;DHT22;7528;48.576;19.122;2023-08-30T08:35:48;27.10;63.10
14873;DHT22;7528;48.576;19.122;2023-08-30T08:40:53;27.40;63.30
14873;DHT22;7528;48.576;19.122;2023-08-30T08:46:03;27.70;63.90
14873;DHT22;7528;48.576;19.122;2023-08-30T08:51:09;28.20;61.20
14873;DHT22;7528;48.576;19.122;2023-08-30T08:56:12;28.20;60.70
14873;DHT22;7528;48.576;19.122;2023-08-30T09:01:15;28.20;59.50
14873;DHT22;7528;48.576;19.122;2023-08-30T09:06:19;28.00;59.30
14873;DHT22;7528;48.576;19.122;2023-08-30T09:11:23;27.90;59.90
14873;DHT22;7528;48.576;19.122;2023-08-30T09:16:25;27.90;60.00
14873;DHT22;7528;48.576;19.122;2023-08-30T09:21:29;27.90;61.20
14873;DHT22;7528;48.576;19.122;2023-08-30T09:26:33;27.80;60.40
14873;DHT22;7528;48.576;19.122;2023-08-30T09:31:37;27.90;60.10
14873;DHT22;7528;48.576;19.122;2023-08-30T09:36:42;27.90;59.80
14873;DHT22;7528;48.576;19.122;2023-08-30T09:41:48;27.90;60.60
14873;DHT22;7528;48.576;19.122;2023-08-30T09:46:51;28.00;58.50
14873;DHT22;7528;48.576;19.122;2023-08-30T09:51:55;28.10;58.10
14873;DHT22;7528;48.576;19.122;2023-08-30T09:57:00;28.30;57.60
14873;DHT22;7528;48.576;19.122;2023-08-30T10:02:03;28.30;57.80
14873;DHT22;7528;48.576;19.122;2023-08-30T10:07:07;28.50;58.70
14873;DHT22;7528;48.576;19.122;2023-08-30T10:12:11;28.70;57.70
14873;DHT22;7528;48.576;19.122;2023-08-30T10:17:14;28.80;57.00
14873;DHT22;7528;48.576;19.122;2023-08-30T10:22:21;29.00;56.10
14873;DHT22;7528;48.576;19.122;2023-08-30T10:27:26;29.40;57.50
14873;DHT22;7528;48.576;19.122;2023-08-30T10:32:30;29.50;56.30
14873;DHT22;7528;48.576;19.122;2023-08-30T10:37:33;29.70;55.70
14873;DHT22;7528;48.576;19.122;2023-08-30T10:42:36;29.80;55.20
14873;DHT22;7528;48.576;19.122;2023-08-30T10:47:38;29.70;54.40
14873;DHT22;7528;48.576;19.122;2023-08-30T10:52:42;29.80;52.60
14873;DHT22;7528;48.576;19.122;2023-08-30T10:57:45;29.90;54.70
14873;DHT22;7528;48.576;19.122;2023-08-30T11:02:49;29.70;54.60
14873;DHT22;7528;48.576;19.122;2023-08-30T11:07:53;29.60;55.00
14873;DHT22;7528;48.576;19.122;2023-08-30T11:12:56;29.30;54.80
14873;DHT22;7528;48.576;19.122;2023-08-30T11:18:04;28.90;55.60
14873;DHT22;7528;48.576;19.122;2023-08-30T11:23:08;28.60;56.20
14873;DHT22;7528;48.576;19.122;2023-08-30T11:28:11;28.50;57.10
14873;DHT22;7528;48.576;19.122;2023-08-30T11:33:16;28.40;56.70
14873;DHT22;7528;48.576;19.122;2023-08-30T11:38:20;28.30;56.50
14873;DHT22;7528;48.576;19.122;2023-08-30T11:43:23;28.20;57.70
14873;DHT22;7528;48.576;19.122;2023-08-30T11:48:26;28.20;57.40
14873;DHT22;7528;48.576;19.122;2023-08-30T11:53:31;28.30;57.00
14873;DHT22;7528;48.576;19.122;2023-08-30T11:58:34;28.10;56.50
14873;DHT22;7528;48.576;19.122;2023-08-30T12:03:36;28.00;58.10
14873;DHT22;7528;48.576;19.122;2023-08-30T12:08:40;27.80;57.00
14873;DHT22;7528;48.576;19.122;2023-08-30T12:13:42;27.60;57.20
14873;DHT22;7528;48.576;19.122;2023-08-30T12:18:45;27.60;57.20
14873;DHT22;7528;48.576;19.122;2023-08-30T12:23:48;27.70;57.40
14873;DHT22;7528;48.576;19.122;2023-08-30T12:29:01;27.60;57.50
14873;DHT22;7528;48.576;19.122;2023-08-30T12:34:04;27.80;57.50
14873;DHT22;7528;48.576;19.122;2023-08-30T12:39:08;27.90;56.90
14873;DHT22;7528;48.576;19.122;2023-08-30T12:44:10;27.80;56.70
14873;DHT22;7528;48.576;19.122;2023-08-30T12:49:13;27.90;57.20
14873;DHT22;7528;48.576;19.122;2023-08-30T12:54:16;28.10;56.70
14873;DHT22;7528;48.576;19.122;2023-08-30T12:59:19;28.30;56.00
14873;DHT22;7528;48.576;19.122;2023-08-30T13:04:21;28.40;55.00
14873;DHT22;7528;48.576;19.122;2023-08-30T13:09:25;28.30;56.70
14873;DHT22;7528;48.576;19.122;2023-08-30T13:14:27;28.50;55.90
14873;DHT22;7528;48.576;19.122;2023-08-30T13:19:29;28.50;54.40
14873;DHT22;7528;48.576;19.122;2023-08-30T13:24:33;28.50;54.50
14873;DHT22;7528;48.576;19.122;2023-08-30T13:29:36;28.50;54.60
14873;DHT22;7528;48.576;19.122;2023-08-30T13:34:38;28.60;53.40
14873;DHT22;7528;48.576;19.122;2023-08-30T13:39:42;28.60;54.80
14873;DHT22;7528;48.576;19.122;2023-08-30T15:10:44;25.40;60.40
14873;DHT22;7528;48.576;19.122;2023-08-30T15:15:46;26.10;59.10
14873;DHT22;7528;48.576;19.122;2023-08-30T15:20:51;26.90;57.40
14873;DHT22;7528;48.576;19.122;2023-08-30T15:25:55;27.30;56.60
14873;DHT22;7528;48.576;19.122;2023-08-30T15:30:58;27.40;55.70
14873;DHT22;7528;48.576;19.122;2023-08-30T15:36:00;27.50;56.30
14873;DHT22;7528;48.576;19.122;2023-08-30T15:41:07;27.50;55.50
14873;DHT22;7528;48.576;19.122;2023-08-30T15:46:11;27.40;55.50
14873;DHT22;7528;48.576;19.122;2023-08-30T15:51:14;27.30;56.60
14873;DHT22;7528;48.576;19.122;2023-08-30T15:56:18;27.30;55.90
14873;DHT22;7528;48.576;19.122;2023-08-30T16:01:21;27.30;55.00
14873;DHT22;7528;48.576;19.122;2023-08-30T16:06:23;27.20;55.10
14873;DHT22;7528;48.576;19.122;2023-08-30T16:11:27;27.00;55.70
14873;DHT22;7528;48.576;19.122;2023-08-30T16:16:29;26.90;56.10
14873;DHT22;7528;48.576;19.122;2023-08-30T16:21:31;26.60;56.50
14873;DHT22;7528;48.576;19.122;2023-08-30T16:26:35;26.40;57.00
14873;DHT22;7528;48.576;19.122;2023-08-30T16:31:38;26.00;57.80
14873;DHT22;7528;48.576;19.122;2023-08-30T16:36:40;25.70;58.60
14873;DHT22;7528;48.576;19.122;2023-08-30T16:41:44;25.50;59.10
14873;DHT22;7528;48.576;19.122;2023-08-30T16:46:46;25.50;59.50
14873;DHT22;7528;48.576;19.122;2023-08-30T16:51:49;25.40;59.70
14873;DHT22;7528;48.576;19.122;2023-08-30T16:56:53;25.40;59.60
14873;DHT22;7528;48.576;19.122;2023-08-30T17:01:57;25.20;59.90
14873;DHT22;7528;48.576;19.122;2023-08-30T17:06:59;25.20;60.30
14873;DHT22;7528;48.576;19.122;2023-08-30T17:12:04;25.10;60.50
14873;DHT22;7528;48.576;19.122;2023-08-30T17:17:07;24.90;61.20
14873;DHT22;7528;48.576;19.122;2023-08-30T17:22:09;24.80;61.70
14873;DHT22;7528;48.576;19.122;2023-08-30T17:27:13;24.60;62.30
14873;DHT22;7528;48.576;19.122;2023-08-30T17:32:15;24.50;62.40
14873;DHT22;7528;48.576;19.122;2023-08-30T17:37:17;24.40;62.80
14873;DHT22;7528;48.576;19.122;2023-08-30T17:42:21;24.30;63.80
14873;DHT22;7528;48.576;19.122;2023-08-30T17:47:24;24.20;63.90
14873;DHT22;7528;48.576;19.122;2023-08-30T17:52:26;24.10;64.80
14873;DHT22;7528;48.576;19.122;2023-08-30T17:57:30;24.10;64.10
14873;DHT22;7528;48.576;19.122;2023-08-30T18:02:32;24.00;64.60
14873;DHT22;7528;48.576;19.122;2023-08-30T18:07:35;24.00;64.80
14873;DHT22;7528;48.576;19.122;2023-08-30T18:12:38;24.00;65.40
14873;DHT22;7528;48.576;19.122;2023-08-30T18:17:41;23.90;66.00
14873;DHT22;7528;48.576;19.122;2023-08-30T18:22:43;23.80;66.60
14873;DHT22;7528;48.576;19.122;2023-08-30T18:27:47;23.70;66.20
14873;DHT22;7528;48.576;19.122;2023-08-30T18:32:50;23.60;66.30
14873;DHT22;7528;48.576;19.122;2023-08-30T18:37:53;23.50;66.30
14873;DHT22;7528;48.576;19.122;2023-08-30T18:42:57;23.30;66.70
14873;DHT22;7528;48.576;19.122;2023-08-30T18:47:59;23.20;68.10
14873;DHT22;7528;48.576;19.122;2023-08-30T18:53:02;23.10;67.60
14873;DHT22;7528;48.576;19.122;2023-08-30T18:58:06;23.10;67.50
14873;DHT22;7528;48.576;19.122;2023-08-30T19:03:09;22.90;67.70
14873;DHT22;7528;48.576;19.122;2023-08-30T19:08:11;22.80;68.00
14873;DHT22;7528;48.576;19.122;2023-08-30T19:13:15;22.70;68.50
14873;DHT22;7528;48.576;19.122;2023-08-30T19:18:17;22.60;68.40
14873;DHT22;7528;48.576;19.122;2023-08-30T19:23:20;22.50;69.10
14873;DHT22;7528;48.576;19.122;2023-08-30T19:28:23;22.40;69.10
14873;DHT22;7528;48.576;19.122;2023-08-30T19:33:26;22.40;69.10
14873;DHT22;7528;48.576;19.122;2023-08-30T19:38:28;22.30;69.20
14873;DHT22;7528;48.576;19.122;2023-08-30T19:43:32;22.30;69.10
14873;DHT22;7528;48.576;19.122;2023-08-30T19:48:35;22.40;69.10
14873;DHT22;7528;48.576;19.122;2023-08-30T19:53:38;22.20;69.60
14873;DHT22;7528;48.576;19.122;2023-08-30T19:58:42;22.10;70.70
14873;DHT22;7528;48.576;19.122;2023-08-30T20:03:44;22.10;69.90
14873;DHT22;7528;48.576;19.122;2023-08-30T20:08:47;22.00;70.30
14873;DHT22;7528;48.576;19.122;2023-08-30T20:13:50;22.00;70.00
14873;DHT22;7528;48.576;19.122;2023-08-30T20:18:53;22.00;70.30
14873;DHT22;7528;48.576;19.122;2023-08-30T20:23:55;21.90;70.80
14873;DHT22;7528;48.576;19.122;2023-08-30T20:28:59;21.90;70.60
14873;DHT22;7528;48.576;19.122;2023-08-30T20:34:01;21.90;71.00
14873;DHT22;7528;48.576;19.122;2023-08-30T20:39:04;21.80;71.60
14873;DHT22;7528;48.576;19.122;2023-08-30T20:44:08;21.80;72.00
14873;DHT22;7528;48.576;19.122;2023-08-30T20:49:10;21.70;72.00
14873;DHT22;7528;48.576;19.122;2023-08-30T20:54:13;21.70;72.20
14873;DHT22;7528;48.576;19.122;2023-08-30T20:59:17;21.70;72.50
14873;DHT22;7528;48.576;19.122;2023-08-30T21:04:20;21.70;72.40
14873;DHT22;7528;48.576;19.122;2023-08-30T21:09:22;21.70;72.70
14873;DHT22;7528;48.576;19.122;2023-08-30T21:14:27;21.70;72.10
14873;DHT22;7528;48.576;19.122;2023-08-30T21:19:29;21.70;72.50
14873;DHT22;7528;48.576;19.122;2023-08-30T21:24:31;21.70;72.50
14873;DHT22;7528;48.576;19.122;2023-08-30T21:29:35;21.70;72.40
14873;DHT22;7528;48.576;19.122;2023-08-30T21:34:38;21.70;73.10
14873;DHT22;7528;48.576;19.122;2023-08-30T21:39:40;21.70;72.70
14873;DHT22;7528;48.576;19.122;2023-08-30T21:44:46;21.70;72.00
14873;DHT22;7528;48.576;19.122;2023-08-30T21:49:49;21.70;73.10
14873;DHT22;7528;48.576;19.122;2023-08-30T21:54:51;21.60;72.90
14873;DHT22;7528;48.576;19.122;2023-08-30T21:59:55;21.60;72.50
14873;DHT22;7528;48.576;19.122;2023-08-30T22:04:57;21.60;72.80
14873;DHT22;7528;48.576;19.122;2023-08-30T22:09:59;21.50;72.90
14873;DHT22;7528;48.576;19.122;2023-08-30T22:15:04;21.50;73.20
14873;DHT22;7528;48.576;19.122;2023-08-30T22:20:13;21.40;72.70
14873;DHT22;7528;48.576;19.122;2023-08-30T22:25:17;21.40;73.70
14873;DHT22;7528;48.576;19.122;2023-08-30T22:30:21;21.40;73.70
14873;DHT22;7528;48.576;19.122;2023-08-30T22:35:24;21.30;74.00
14873;DHT22;7528;48.576;19.122;2023-08-30T22:40:26;21.20;74.00
14873;DHT22;7528;48.576;19.122;2023-08-30T22:45:30;21.10;74.20
14873;DHT22;7528;48.576;19.122;2023-08-30T22:50:34;21.10;74.60
14873;DHT22;7528;48.576;19.122;2023-08-30T22:55:36;21.00;74.70
14873;DHT22;7528;48.576;19.122;2023-08-30T23:00:40;21.00;74.10
14873;DHT22;7528;48.576;19.122;2023-08-30T23:05:43;21.00;74.50
14873;DHT22;7528;48.576;19.122;2023-08-30T23:10:45;20.90;74.90
14873;DHT22;7528;48.576;19.122;2023-08-30T23:15:49;20.80;75.30
14873;DHT22;7528;48.576;19.122;2023-08-30T23:20:52;20.80;75.60
14873;DHT22;7528;48.576;19.122;2023-08-30T23:25:54;20.80;75.80
14873;DHT22;7528;48.576;19.122;2023-08-30T23:30:58;20.70;75.90
14873;DHT22;7528;48.576;19.122;2023-08-30T23:36:00;20.60;76.10
14873;DHT22;7528;48.576;19.122;2023-08-30T23:41:03;20.60;76.30
14873;DHT22;7528;48.576;19.122;2023-08-30T23:46:07;20.60;76.30
14873;DHT22;7528;48.576;19.122;2023-08-30T23:51:09;20.50;76.50
14873;DHT22;7528;48.576;19.122;2023-08-30T23:56:11;20.50;76.80
